Wekiva Springs, Florida
Current Conditions -  °F | °C
As of 7:53 PM on Saturday 25 Oct 2014 (Local Time) from KORL Reporting Station
Clear Clear  
Wind Chill: 22°   Ceiling: Unl
Heat Index: 22°   Visibility: 10mi
Dew Point: 15°   Wind: 7mph
Humidity: 64%   Direction: 50°NE
Pressure: 29.97"   Gusts: NA
Location:  28.7°N, 81.42°W
Report Text: KORL 252353Z 05006KT 10SM CLR 22/15 A2997 RMK AO2 SLP152 T02220150 10272 20222 53011
Loading
Personal Weather Stations






























Interactive Weather Map
Tropical Storm Tracking
New forecast layout! Learn more

10-Day Weather Forecast

Advertisements
Track Severe Weather on mobile